Time;durP1;ratioP1;P1;durP2;ratioP2;P2;SDS_P1;SDS_P2;PMS_P1;PMS_P2;Temp;Humidity;BMP_temperature;BMP_pressure;BME280_temperature;BME280_humidity;BME280_pressure;Samples;Min_cycle;Max_cycle;Signal;HPM_P1;HPM_P2
2022/01/23 00:01:13;;;;;;;7.70;2.83;;;18.90;46.30;;;;;;4943279;29;20058;-55
2022/01/23 00:03:45;;;;;;;3.70;3.13;;;18.90;46.40;;;;;;4946434;28;20044;-56
2022/01/23 00:06:13;;;;;;;2.60;2.40;;;18.90;46.50;;;;;;4941800;28;20048;-55
2022/01/23 00:08:40;;;;;;;4.10;2.70;;;18.90;46.50;;;;;;4945738;28;20150;-56
2022/01/23 00:11:08;;;;;;;3.80;3.45;;;18.90;46.50;;;;;;4946055;28;20491;-58
2022/01/23 00:17:14;;;;;;;3.30;2.45;;;18.90;46.60;;;;;;4945557;28;20117;-56
2022/01/23 00:19:08;;;;;;;3.97;3.28;;;18.90;46.60;;;;;;4947457;29;20043;-56
2022/01/23 00:21:37;;;;;;;3.15;2.90;;;18.90;46.70;;;;;;4936362;28;20106;-55
2022/01/23 00:32:19;;;;;;;1.48;1.38;;;18.80;46.60;;;;;;4945725;28;20118;-57
2022/01/23 00:34:47;;;;;;;3.10;2.75;;;18.80;46.60;;;;;;4944220;28;20039;-57
2022/01/23 00:37:14;;;;;;;3.22;2.92;;;18.80;46.50;;;;;;4946606;28;20043;-56
2022/01/23 00:39:41;;;;;;;3.13;2.88;;;18.80;46.60;;;;;;4946626;28;20065;-52
2022/01/23 00:42:09;;;;;;;3.17;2.88;;;18.80;46.60;;;;;;4943600;28;20444;-54
2022/01/23 00:44:37;;;;;;;2.28;1.77;;;18.80;46.60;;;;;;4946966;28;20826;-52
2022/01/23 00:47:11;;;;;;;1.77;1.67;;;18.80;46.60;;;;;;4947413;28;20049;-55
2022/01/23 00:49:38;;;;;;;3.25;2.97;;;18.80;46.60;;;;;;4932213;28;20090;-53
2022/01/23 00:52:07;;;;;;;4.10;2.63;;;18.80;46.60;;;;;;4950295;29;20660;-54
2022/01/23 00:54:34;;;;;;;3.50;3.17;;;18.80;46.50;;;;;;4949063;28;20067;-53
2022/01/23 00:57:01;;;;;;;3.78;2.85;;;18.80;46.50;;;;;;4948379;28;20039;-57
2022/01/23 00:59:28;;;;;;;2.25;1.98;;;18.80;46.60;;;;;;4948398;28;20518;-53
2022/01/23 01:01:55;;;;;;;2.00;1.88;;;18.80;46.60;;;;;;4948965;28;20036;-54
2022/01/23 01:04:22;;;;;;;2.63;2.05;;;18.70;46.50;;;;;;4947904;28;20051;-57
2022/01/23 01:06:49;;;;;;;4.85;2.67;;;18.70;46.40;;;;;;4950501;28;20062;-52
2022/01/23 01:09:18;;;;;;;2.25;2.05;;;18.70;46.50;;;;;;4947728;28;20054;-54
2022/01/23 01:11:57;;;;;;;2.60;2.45;;;18.70;46.50;;;;;;4941777;28;20605;-55
2022/01/23 01:14:37;;;;;;;3.17;2.85;;;18.70;46.50;;;;;;4925097;29;20054;-56
2022/01/23 01:17:11;;;;;;;3.00;2.80;;;18.70;47.10;;;;;;4947305;28;20090;-57
2022/01/23 01:31:00;;;;;;;3.65;2.58;;;18.60;46.60;;;;;;4910472;29;19931;-54
2022/01/23 01:33:38;;;;;;;2.38;2.17;;;18.50;46.70;;;;;;4895754;29;20044;-51
2022/01/23 01:36:18;;;;;;;2.35;2.25;;;18.60;46.80;;;;;;4910602;29;20148;-53
2022/01/23 01:38:46;;;;;;;6.05;2.65;;;18.60;46.80;;;;;;4910956;29;20048;-55
2022/01/23 01:41:18;;;;;;;4.35;3.03;;;18.60;46.90;;;;;;4893711;29;20048;-56
2022/01/23 01:43:45;;;;;;;2.58;2.47;;;18.60;46.90;;;;;;4906005;29;20206;-54
2022/01/23 01:46:12;;;;;;;1.85;1.75;;;18.60;46.90;;;;;;4898172;29;20056;-53
2022/01/23 01:48:45;;;;;;;1.92;1.80;;;18.60;46.90;;;;;;4914015;29;20079;-54
2022/01/23 01:51:16;;;;;;;2.28;1.65;;;18.60;46.90;;;;;;4910849;29;20059;-57
2022/01/23 01:53:50;;;;;;;1.63;1.52;;;18.60;46.90;;;;;;4894890;29;20165;-58
2022/01/23 01:56:19;;;;;;;2.20;2.00;;;18.60;46.80;;;;;;4919451;28;20869;-54
2022/01/23 01:59:12;;;;;;;2.63;2.42;;;18.60;46.90;;;;;;4946111;28;20195;-56
2022/01/23 02:10:16;;;;;;;2.80;1.70;;;18.50;47.00;;;;;;4946790;28;20047;-54
2022/01/23 02:24:59;;;;;;;2.08;1.92;;;18.50;47.60;;;;;;4868696;29;20060;-54
2022/01/23 02:52:48;;;;;;;1.48;1.35;;;18.40;47.10;;;;;;4796744;29;20094;-58
2022/01/23 02:55:23;;;;;;;2.13;1.88;;;18.40;47.00;;;;;;4813213;29;20098;-56
2022/01/23 02:57:55;;;;;;;3.78;2.17;;;18.40;47.00;;;;;;4833264;29;20844;-56
2022/01/23 03:00:34;;;;;;;3.03;0.90;;;18.40;47.00;;;;;;4869335;29;20530;-56
2022/01/23 03:03:10;;;;;;;1.50;1.40;;;18.40;47.00;;;;;;4864181;29;20533;-56
2022/01/23 03:06:17;;;;;;;1.40;1.17;;;18.40;47.00;;;;;;4871151;29;20118;-54
2022/01/23 03:09:08;;;;;;;1.70;1.52;;;18.40;46.90;;;;;;4865825;29;20045;-57
2022/01/23 03:12:00;;;;;;;2.13;0.95;;;18.40;47.00;;;;;;4871317;29;20780;-54
2022/01/23 03:14:41;;;;;;;1.70;1.15;;;18.40;46.90;;;;;;4867337;29;20186;-55
2022/01/23 03:26:04;;;;;;;1.55;1.45;;;18.30;46.80;;;;;;4905500;29;20051;-54
2022/01/23 03:28:38;;;;;;;1.10;1.00;;;18.40;46.90;;;;;;4904332;29;20067;-54
2022/01/23 03:31:20;;;;;;;1.77;1.67;;;18.40;46.90;;;;;;4907530;29;20045;-56
2022/01/23 03:33:47;;;;;;;1.75;0.65;;;18.30;46.80;;;;;;4906264;29;20041;-56
2022/01/23 03:36:14;;;;;;;1.35;0.95;;;18.30;46.80;;;;;;4904875;29;20156;-57
2022/01/23 03:38:41;;;;;;;1.98;1.00;;;18.30;46.80;;;;;;4901891;29;20176;-56
2022/01/23 03:41:10;;;;;;;1.30;1.17;;;18.40;46.80;;;;;;4903653;29;20107;-54
2022/01/23 03:43:39;;;;;;;1.88;0.75;;;18.40;46.80;;;;;;4905603;29;20044;-52
2022/01/23 03:46:23;;;;;;;2.60;0.90;;;18.40;46.70;;;;;;4903368;29;20064;-54
2022/01/23 03:51:38;;;;;;;1.27;1.17;;;18.40;46.70;;;;;;4903157;29;20054;-52
2022/01/23 03:54:05;;;;;;;1.63;1.52;;;18.30;46.70;;;;;;4905296;29;20453;-54
2022/01/23 03:56:32;;;;;;;1.25;1.25;;;18.30;46.60;;;;;;4905422;29;20133;-51
2022/01/23 03:59:01;;;;;;;1.63;1.50;;;18.40;46.70;;;;;;4930840;28;20162;-56
2022/01/23 04:01:28;;;;;;;1.50;0.88;;;18.30;46.60;;;;;;4942995;28;20579;-55
2022/01/23 04:04:01;;;;;;;1.83;1.23;;;18.40;46.60;;;;;;4946529;29;20130;-51
2022/01/23 04:06:28;;;;;;;1.30;1.02;;;18.30;46.50;;;;;;4944750;28;20520;-52
2022/01/23 04:08:55;;;;;;;1.13;1.05;;;18.30;46.50;;;;;;4929105;29;20051;-54
2022/01/23 04:11:22;;;;;;;1.08;0.98;;;18.40;46.60;;;;;;4944640;28;20082;-54
2022/01/23 04:13:55;;;;;;;1.95;0.93;;;18.30;46.50;;;;;;4944585;28;20043;-53
2022/01/23 04:16:59;;;;;;;1.80;1.70;;;18.30;46.50;;;;;;4946300;28;20869;-53
2022/01/23 04:19:39;;;;;;;0.77;0.77;;;18.30;46.50;;;;;;4948383;28;20061;-54
2022/01/23 04:33:25;;;;;;;0.80;0.80;;;18.30;46.40;;;;;;4948079;28;20118;-54
2022/01/23 05:00:50;;;;;;;1.08;1.08;;;18.20;46.50;;;;;;4949562;28;20542;-58
2022/01/23 05:06:23;;;;;;;1.27;0.85;;;18.20;46.50;;;;;;4948988;28;20039;-56
2022/01/23 05:09:00;;;;;;;1.85;1.13;;;18.20;46.50;;;;;;4945198;28;20109;-49
2022/01/23 05:11:48;;;;;;;0.80;0.80;;;18.20;46.50;;;;;;4931936;29;20035;-54
2022/01/23 05:14:28;;;;;;;1.48;0.85;;;18.20;46.60;;;;;;4942808;28;20464;-55
2022/01/23 05:16:55;;;;;;;0.98;0.98;;;18.20;46.40;;;;;;4946759;28;20062;-54
2022/01/23 05:19:23;;;;;;;1.40;0.90;;;18.20;46.50;;;;;;4931682;28;20130;-55
2022/01/23 05:22:16;;;;;;;2.40;1.70;;;18.20;46.40;;;;;;4950139;28;20048;-53
2022/01/23 05:24:49;;;;;;;2.97;0.90;;;18.20;46.40;;;;;;4949565;28;20064;-55
2022/01/23 05:27:17;;;;;;;1.38;1.10;;;18.20;46.40;;;;;;4947229;28;20043;-54
2022/01/23 05:29:44;;;;;;;1.60;1.33;;;18.20;46.40;;;;;;4941098;28;20509;-52
2022/01/23 05:32:12;;;;;;;0.80;0.80;;;18.20;46.40;;;;;;4946216;28;20054;-55
2022/01/23 05:34:40;;;;;;;2.55;0.85;;;18.20;46.40;;;;;;4947587;28;20067;-55
2022/01/23 05:37:21;;;;;;;1.00;1.00;;;18.20;46.50;;;;;;4941126;28;20048;-54
2022/01/23 05:39:49;;;;;;;1.30;1.20;;;18.20;46.40;;;;;;4931945;29;20045;-55
2022/01/23 05:42:17;;;;;;;2.75;1.23;;;18.20;46.40;;;;;;4942172;28;20621;-60
2022/01/23 05:44:45;;;;;;;3.33;1.00;;;18.20;46.40;;;;;;4945618;28;20049;-56
2022/01/23 05:47:13;;;;;;;1.88;0.90;;;18.20;46.40;;;;;;4946025;28;20123;-55
2022/01/23 05:50:00;;;;;;;1.40;1.30;;;18.20;46.40;;;;;;4944800;28;20086;-55
2022/01/23 05:52:41;;;;;;;1.40;1.35;;;18.20;46.40;;;;;;4944140;28;20142;-55
2022/01/23 05:55:27;;;;;;;1.02;1.00;;;18.20;46.40;;;;;;4946819;28;20504;-56
2022/01/23 05:58:03;;;;;;;3.83;1.05;;;18.20;46.30;;;;;;4948316;29;20051;-54
2022/01/23 06:00:37;;;;;;;0.90;0.90;;;18.20;46.40;;;;;;4940826;28;20107;-54
2022/01/23 06:03:08;;;;;;;1.58;1.42;;;18.20;46.40;;;;;;4945721;28;20045;-54
2022/01/23 06:05:43;;;;;;;2.75;1.58;;;18.20;46.40;;;;;;4945737;28;20143;-58
2022/01/23 06:08:17;;;;;;;1.40;1.17;;;18.20;46.30;;;;;;4943475;28;20059;-55
2022/01/23 06:10:56;;;;;;;1.33;1.08;;;18.20;46.50;;;;;;4941627;28;20042;-55
2022/01/23 06:13:33;;;;;;;7.18;2.88;;;18.20;46.70;;;;;;4928819;28;20149;-54
2022/01/23 06:16:02;;;;;;;2.90;1.50;;;18.10;46.80;;;;;;4947875;29;20051;-54
2022/01/23 06:18:29;;;;;;;5.75;1.77;;;18.10;47.20;;;;;;4944300;28;20154;-55
2022/01/23 06:21:19;;;;;;;7.60;1.30;;;18.20;47.50;;;;;;4945438;28;20145;-53
2022/01/23 06:24:24;;;;;;;4.22;0.77;;;18.20;47.50;;;;;;4944862;28;20129;-54
2022/01/23 06:27:02;;;;;;;2.25;0.98;;;18.20;47.50;;;;;;4945275;28;20129;-55
2022/01/23 06:29:31;;;;;;;3.97;1.35;;;18.20;47.50;;;;;;4945269;28;20130;-52
2022/01/23 06:32:02;;;;;;;1.42;1.33;;;18.20;47.40;;;;;;4946188;28;20070;-55
2022/01/23 06:34:30;;;;;;;2.45;0.75;;;18.20;47.30;;;;;;4940048;28;20511;-54
2022/01/23 06:36:58;;;;;;;8.38;1.25;;;18.20;47.20;;;;;;4946908;29;20039;-51
2022/01/23 06:39:27;;;;;;;0.98;0.98;;;18.20;47.40;;;;;;4941605;28;20377;-51
2022/01/23 06:41:58;;;;;;;7.57;1.15;;;18.20;47.40;;;;;;4944268;28;20102;-54
2022/01/23 06:45:00;;;;;;;4.75;1.85;;;18.20;47.50;;;;;;4925095;29;20157;-51
2022/01/23 06:47:28;;;;;;;5.35;1.48;;;18.20;47.60;;;;;;4929625;29;20448;-51
2022/01/23 06:49:55;;;;;;;3.33;1.00;;;18.20;47.50;;;;;;4944380;28;20517;-50
2022/01/23 06:52:22;;;;;;;1.90;0.88;;;18.20;47.50;;;;;;4945384;28;20047;-54
2022/01/23 06:54:55;;;;;;;2.92;1.15;;;18.20;47.40;;;;;;4945080;29;20055;-50
2022/01/23 06:57:23;;;;;;;5.68;1.70;;;18.30;47.40;;;;;;4943064;29;20175;-52
2022/01/23 06:59:53;;;;;;;1.88;1.30;;;18.20;47.30;;;;;;4927784;29;20049;-49
2022/01/23 07:02:46;;;;;;;7.53;2.60;;;18.20;47.90;;;;;;4886877;29;20071;-53
2022/01/23 07:05:34;;;;;;;4.55;0.93;;;18.20;47.30;;;;;;4883360;29;20057;-53
2022/01/23 07:08:09;;;;;;;1.83;0.70;;;18.20;47.10;;;;;;4871528;29;20053;-51
2022/01/23 07:10:55;;;;;;;6.50;0.80;;;18.20;47.10;;;;;;4871102;29;20048;-50
2022/01/23 07:13:39;;;;;;;0.60;0.60;;;18.10;47.00;;;;;;4870998;29;20088;-52
2022/01/23 07:16:30;;;;;;;1.83;1.08;;;18.20;47.00;;;;;;4868326;29;20061;-50
2022/01/23 07:19:17;;;;;;;0.65;0.65;;;18.10;46.90;;;;;;4865945;29;20060;-50
2022/01/23 07:21:51;;;;;;;2.55;0.85;;;18.20;46.90;;;;;;4858616;29;20523;-53
2022/01/23 07:24:19;;;;;;;2.00;0.75;;;18.10;46.80;;;;;;4850832;29;20042;-51
2022/01/23 07:26:49;;;;;;;1.77;1.23;;;18.10;46.80;;;;;;4853110;29;20106;-46
2022/01/23 07:29:18;;;;;;;2.28;0.45;;;18.20;46.80;;;;;;4852175;29;20083;-51
2022/01/23 07:31:57;;;;;;;0.50;0.40;;;18.10;46.60;;;;;;4852908;29;20060;-51
2022/01/23 07:34:25;;;;;;;0.57;0.47;;;18.10;46.60;;;;;;4849242;29;20059;-50
2022/01/23 07:36:53;;;;;;;1.33;0.40;;;18.10;46.60;;;;;;4854095;29;20084;-52
2022/01/23 07:39:35;;;;;;;2.15;0.82;;;18.10;46.50;;;;;;4860615;29;20690;-50
2022/01/23 07:42:09;;;;;;;1.30;0.40;;;18.10;47.00;;;;;;4874708;29;20051;-52
2022/01/23 07:44:55;;;;;;;1.27;0.40;;;18.10;46.40;;;;;;4883988;29;20040;-49
2022/01/23 07:47:48;;;;;;;0.80;0.80;;;18.10;46.40;;;;;;4887314;29;20090;-52
2022/01/23 07:50:51;;;;;;;0.50;0.40;;;18.10;46.40;;;;;;4870462;29;20181;-53
2022/01/23 07:53:35;;;;;;;1.13;0.90;;;18.00;46.30;;;;;;4891934;29;20637;-53
2022/01/23 07:56:16;;;;;;;0.40;0.25;;;18.00;46.20;;;;;;4902535;29;20590;-54
2022/01/23 07:58:46;;;;;;;0.40;0.40;;;18.10;46.20;;;;;;4946668;28;20054;-51
2022/01/23 08:01:21;;;;;;;0.68;0.40;;;18.10;46.20;;;;;;4933211;28;20048;-51
2022/01/23 08:04:12;;;;;;;0.30;0.30;;;18.10;46.30;;;;;;4948867;29;20066;-53
2022/01/23 08:06:43;;;;;;;0.82;0.55;;;18.00;46.00;;;;;;4947331;28;20134;-50
2022/01/23 08:09:33;;;;;;;0.68;0.65;;;18.10;46.00;;;;;;4946948;28;20055;-52
2022/01/23 08:12:00;;;;;;;1.02;0.93;;;18.00;45.90;;;;;;4949677;28;20035;-50
2022/01/23 08:14:28;;;;;;;0.52;0.40;;;18.00;45.90;;;;;;4946365;28;20051;-51
2022/01/23 08:16:56;;;;;;;1.67;0.63;;;18.00;45.70;;;;;;4949675;28;20039;-52
2022/01/23 08:19:23;;;;;;;0.47;0.40;;;18.00;45.80;;;;;;4934995;28;20397;-52
2022/01/23 08:21:50;;;;;;;1.83;0.30;;;18.00;45.80;;;;;;4951046;28;20051;-49
2022/01/23 08:24:17;;;;;;;0.75;0.65;;;18.00;45.70;;;;;;4949815;28;20039;-49
2022/01/23 08:26:44;;;;;;;1.85;0.32;;;18.00;45.70;;;;;;4949021;28;20263;-51
2022/01/23 08:29:11;;;;;;;1.40;0.75;;;18.00;45.70;;;;;;4947929;28;20768;-48
2022/01/23 08:31:40;;;;;;;1.05;0.82;;;18.00;45.70;;;;;;4949756;28;20090;-48
2022/01/23 08:34:07;;;;;;;0.63;0.43;;;18.00;45.60;;;;;;4951279;29;20047;-51
2022/01/23 08:36:35;;;;;;;2.47;0.57;;;18.00;45.70;;;;;;4948909;28;20138;-47
2022/01/23 08:39:03;;;;;;;0.95;0.82;;;18.00;45.50;;;;;;4949356;28;20119;-48
2022/01/23 08:44:15;;;;;;;0.85;0.45;;;18.00;45.50;;;;;;4949273;28;20039;-50
2022/01/23 08:46:44;;;;;;;0.60;0.30;;;18.00;45.50;;;;;;4949287;28;20043;-51
2022/01/23 08:49:11;;;;;;;1.13;0.68;;;18.00;45.50;;;;;;4949910;28;20039;-51
2022/01/23 08:51:38;;;;;;;1.13;0.47;;;18.00;45.50;;;;;;4947976;28;20047;-52
2022/01/23 08:54:06;;;;;;;0.88;0.60;;;18.00;45.40;;;;;;4950775;28;20047;-53
2022/01/23 08:56:33;;;;;;;0.65;0.50;;;18.00;45.40;;;;;;4945705;28;20339;-50
2022/01/23 08:59:00;;;;;;;0.70;0.43;;;18.00;45.40;;;;;;4947813;28;20154;-51
2022/01/23 09:01:29;;;;;;;1.10;0.93;;;18.00;45.40;;;;;;4949849;28;20043;-51
2022/01/23 09:03:57;;;;;;;0.57;0.30;;;18.00;45.30;;;;;;4947678;28;20584;-50
2022/01/23 09:06:25;;;;;;;1.27;0.20;;;17.90;45.30;;;;;;4944994;28;20047;-49
2022/01/23 09:08:53;;;;;;;0.70;0.70;;;17.90;45.30;;;;;;4948193;28;20691;-50
2022/01/23 09:11:27;;;;;;;0.70;0.70;;;17.90;45.30;;;;;;4947919;28;20061;-50
2022/01/23 09:14:06;;;;;;;0.95;0.30;;;18.00;45.30;;;;;;4949205;28;20122;-54
2022/01/23 09:16:35;;;;;;;0.57;0.50;;;17.90;45.30;;;;;;4950015;28;20043;-52
2022/01/23 09:19:04;;;;;;;0.30;0.30;;;17.90;45.30;;;;;;4949388;29;20106;-53
2022/01/23 09:21:31;;;;;;;0.40;0.40;;;17.90;45.30;;;;;;4948909;28;20039;-50
2022/01/23 09:23:59;;;;;;;0.20;0.20;;;17.90;45.20;;;;;;4948560;28;20087;-51
2022/01/23 09:26:27;;;;;;;0.82;0.47;;;17.90;45.10;;;;;;4948728;28;20051;-51
2022/01/23 09:28:58;;;;;;;0.93;0.88;;;17.90;45.10;;;;;;4948709;28;20105;-50
2022/01/23 09:31:31;;;;;;;0.47;0.47;;;17.90;45.00;;;;;;4949317;28;20071;-53
2022/01/23 09:33:59;;;;;;;0.35;0.35;;;17.90;45.00;;;;;;4950174;28;20133;-51
2022/01/23 09:36:29;;;;;;;0.30;0.30;;;17.90;45.00;;;;;;4948373;28;20050;-52
2022/01/23 09:38:56;;;;;;;0.35;0.35;;;17.90;45.00;;;;;;4948009;28;20046;-51
2022/01/23 09:41:28;;;;;;;1.05;0.95;;;17.90;45.00;;;;;;4948156;28;20407;-53
2022/01/23 09:43:56;;;;;;;0.85;0.85;;;17.90;45.00;;;;;;4947952;28;20047;-51
2022/01/23 09:46:25;;;;;;;0.82;0.52;;;17.90;44.90;;;;;;4948835;28;20124;-48
2022/01/23 09:48:53;;;;;;;1.48;0.40;;;17.90;45.00;;;;;;4949706;28;20051;-51
2022/01/23 09:51:21;;;;;;;1.55;0.75;;;17.90;45.00;;;;;;4947944;28;20035;-52
2022/01/23 09:53:53;;;;;;;0.73;0.20;;;17.90;45.00;;;;;;4948000;28;20040;-53
2022/01/23 09:56:26;;;;;;;1.52;0.47;;;17.90;45.00;;;;;;4948231;28;20412;-47
2022/01/23 09:58:54;;;;;;;0.85;0.35;;;17.90;44.90;;;;;;4948118;28;20044;-50
2022/01/23 10:01:22;;;;;;;0.52;0.25;;;17.90;44.90;;;;;;4948582;28;20046;-51
2022/01/23 10:03:50;;;;;;;0.47;0.47;;;17.90;44.90;;;;;;4949578;28;20073;-49
2022/01/23 10:06:18;;;;;;;0.40;0.30;;;17.90;44.90;;;;;;4948377;28;20520;-47
2022/01/23 10:08:45;;;;;;;0.30;0.25;;;17.90;44.90;;;;;;4947529;28;20043;-49
2022/01/23 10:11:14;;;;;;;0.50;0.47;;;17.90;44.80;;;;;;4947961;28;20050;-52
2022/01/23 10:13:43;;;;;;;0.50;0.45;;;17.90;44.80;;;;;;4947971;28;27399;-55
2022/01/23 10:16:11;;;;;;;0.60;0.52;;;17.90;44.80;;;;;;4944554;28;20039;-52
2022/01/23 10:18:39;;;;;;;0.65;0.32;;;17.90;44.80;;;;;;4947733;28;20074;-51
2022/01/23 10:21:06;;;;;;;0.43;0.43;;;17.90;44.80;;;;;;4947210;28;20043;-40
2022/01/23 10:23:34;;;;;;;4.53;0.60;;;17.90;44.70;;;;;;4947883;28;20047;-49
2022/01/23 10:26:04;;;;;;;1.35;0.30;;;17.90;44.80;;;;;;4944652;28;20520;-52
2022/01/23 10:28:34;;;;;;;0.50;0.50;;;17.90;44.70;;;;;;4947659;28;20039;-53
2022/01/23 10:31:04;;;;;;;0.45;0.38;;;17.90;44.60;;;;;;4949089;29;20097;-50
2022/01/23 10:33:34;;;;;;;1.35;0.20;;;17.90;44.60;;;;;;4947508;28;20036;-52
2022/01/23 10:36:06;;;;;;;0.20;0.20;;;17.90;44.70;;;;;;4946781;28;20035;-53
2022/01/23 10:38:36;;;;;;;0.40;0.35;;;17.90;44.70;;;;;;4945327;28;20074;-53
2022/01/23 10:41:15;;;;;;;0.65;0.52;;;17.90;44.70;;;;;;4945922;28;20071;-51
2022/01/23 10:47:02;;;;;;;0.75;0.35;;;17.80;44.60;;;;;;4947743;28;20620;-49
2022/01/23 10:49:47;;;;;;;0.90;0.30;;;17.80;44.60;;;;;;4947222;28;20906;-51
2022/01/23 10:52:29;;;;;;;0.45;0.30;;;17.80;44.60;;;;;;4944900;29;20070;-54
2022/01/23 10:54:57;;;;;;;0.30;0.20;;;17.80;44.60;;;;;;4947138;29;20062;-52
2022/01/23 10:57:24;;;;;;;0.45;0.30;;;17.80;44.60;;;;;;4946996;28;20059;-50
2022/01/23 10:59:54;;;;;;;0.20;0.20;;;17.80;44.60;;;;;;4945618;28;20047;-50
2022/01/23 11:02:24;;;;;;;1.00;0.28;;;17.80;44.50;;;;;;4945205;28;20047;-50
2022/01/23 11:04:57;;;;;;;0.40;0.28;;;17.90;44.50;;;;;;4945288;28;20047;-51
2022/01/23 11:07:25;;;;;;;0.20;0.10;;;17.80;44.50;;;;;;4947258;28;20051;-50
2022/01/23 11:10:01;;;;;;;0.47;0.40;;;17.80;44.50;;;;;;4948644;28;20043;-52
2022/01/23 11:18:12;;;;;;;0.20;0.10;;;17.80;44.50;;;;;;4946437;28;20047;-52
2022/01/23 11:20:41;;;;;;;0.20;0.20;;;17.80;44.50;;;;;;4946466;28;20043;-49
2022/01/23 11:23:13;;;;;;;0.40;0.25;;;17.80;44.50;;;;;;4947034;28;20074;-51
2022/01/23 11:25:42;;;;;;;0.20;0.20;;;17.80;44.40;;;;;;4946030;28;20058;-49
2022/01/23 11:28:09;;;;;;;1.20;0.20;;;17.80;44.40;;;;;;4947650;28;20121;-49
2022/01/23 11:30:41;;;;;;;1.77;0.30;;;17.80;44.40;;;;;;4947569;29;20049;-55
2022/01/23 11:33:14;;;;;;;1.08;0.45;;;17.80;44.40;;;;;;4929996;29;20051;-50
2022/01/23 11:35:42;;;;;;;0.30;0.20;;;17.80;44.30;;;;;;4941204;28;20119;-51
2022/01/23 11:38:14;;;;;;;0.20;0.10;;;17.80;44.30;;;;;;4946959;28;20050;-53
2022/01/23 11:54:37;;;;;;;0.35;0.20;;;17.80;44.30;;;;;;4944500;28;19934;-47
2022/01/23 11:57:04;;;;;;;0.95;0.10;;;17.80;44.40;;;;;;4941682;28;20058;-51
2022/01/23 12:00:07;;;;;;;0.40;0.40;;;17.70;44.40;;;;;;4934852;28;20452;-52
2022/01/23 12:02:43;;;;;;;1.00;0.40;;;17.70;44.30;;;;;;4945836;28;20676;-49
2022/01/23 12:05:22;;;;;;;0.45;0.38;;;17.80;44.40;;;;;;4946626;28;20731;-53
2022/01/23 12:08:34;;;;;;;0.95;0.32;;;17.80;44.30;;;;;;4941655;28;20063;-51
2022/01/23 12:11:39;;;;;;;0.43;0.30;;;17.80;44.30;;;;;;4944737;28;20040;-51
2022/01/23 12:17:24;;;;;;;0.30;0.20;;;17.80;44.30;;;;;;4944130;28;20453;-52
2022/01/23 12:19:58;;;;;;;0.35;0.28;;;17.80;44.30;;;;;;4946213;29;20039;-52
2022/01/23 12:22:30;;;;;;;0.90;0.35;;;17.80;44.30;;;;;;4946522;28;20054;-51
2022/01/23 12:24:59;;;;;;;0.45;0.40;;;17.80;44.20;;;;;;4948031;29;20123;-50
2022/01/23 12:27:28;;;;;;;0.65;0.40;;;17.80;44.20;;;;;;4945905;28;20040;-48
2022/01/23 12:30:10;;;;;;;0.40;0.40;;;17.70;44.10;;;;;;4940255;28;20043;-51
2022/01/23 12:32:38;;;;;;;0.40;0.20;;;17.80;44.10;;;;;;4941468;28;20047;-51
2022/01/23 12:35:10;;;;;;;0.50;0.38;;;17.80;44.10;;;;;;4946069;28;20046;-47
2022/01/23 12:38:05;;;;;;;0.20;0.20;;;17.80;44.00;;;;;;4929277;28;20043;-50
2022/01/23 12:40:36;;;;;;;0.30;0.20;;;17.80;44.60;;;;;;4947867;28;20130;-51
2022/01/23 12:43:05;;;;;;;0.28;0.28;;;17.70;44.00;;;;;;4951508;28;20039;-53
2022/01/23 12:45:55;;;;;;;0.40;0.25;;;17.80;44.10;;;;;;4947077;28;20528;-53
2022/01/23 12:48:43;;;;;;;2.10;0.25;;;17.80;43.90;;;;;;4948724;28;20035;-54
2022/01/23 12:51:37;;;;;;;0.50;0.20;;;17.80;44.00;;;;;;4948735;28;20054;-48
2022/01/23 12:54:31;;;;;;;1.38;0.20;;;17.80;44.00;;;;;;4949718;28;20472;-47
2022/01/23 12:57:08;;;;;;;0.28;0.25;;;17.80;44.00;;;;;;4949223;28;20047;-50
2022/01/23 12:59:36;;;;;;;0.40;0.32;;;17.80;44.00;;;;;;4948238;28;20901;-54
2022/01/23 13:02:10;;;;;;;0.52;0.40;;;17.70;43.90;;;;;;4952483;28;20066;-50
2022/01/23 13:04:42;;;;;;;0.90;0.20;;;17.80;44.00;;;;;;4949215;28;20043;-51
2022/01/23 13:07:22;;;;;;;1.10;0.20;;;17.80;44.00;;;;;;4950989;29;20075;-52
2022/01/23 13:09:54;;;;;;;0.75;0.28;;;17.80;44.00;;;;;;4949871;28;20567;-53
2022/01/23 13:12:47;;;;;;;0.40;0.40;;;17.80;44.00;;;;;;4948833;28;20158;-50
2022/01/23 13:15:42;;;;;;;1.25;0.57;;;17.80;43.90;;;;;;4949616;28;20457;-48
2022/01/23 13:18:31;;;;;;;0.80;0.38;;;17.80;43.90;;;;;;4948945;28;20498;-53
2022/01/23 13:32:17;;;;;;;0.30;0.30;;;17.70;43.90;;;;;;4949139;28;19922;-48
2022/01/23 13:34:49;;;;;;;0.63;0.50;;;17.70;44.00;;;;;;4947893;28;20043;-49
2022/01/23 13:37:18;;;;;;;0.93;0.43;;;17.70;43.90;;;;;;4948942;29;20484;-50
2022/01/23 13:39:51;;;;;;;0.80;0.60;;;17.70;43.90;;;;;;4949831;28;20057;-53
2022/01/23 13:54:02;;;;;;;0.40;0.40;;;17.70;43.70;;;;;;4867786;29;20055;-54
2022/01/23 13:59:23;;;;;;;0.47;0.47;;;17.70;43.70;;;;;;4868907;29;20045;-53
2022/01/23 14:01:54;;;;;;;0.63;0.20;;;17.70;43.70;;;;;;4869334;29;20045;-50
2022/01/23 14:04:24;;;;;;;1.05;0.63;;;17.70;43.70;;;;;;4870657;29;20053;-53
2022/01/23 14:06:52;;;;;;;1.60;0.30;;;17.70;43.60;;;;;;4870815;29;20156;-51
2022/01/23 14:09:20;;;;;;;0.30;0.30;;;17.70;43.60;;;;;;4869474;29;20052;-56
2022/01/23 14:11:49;;;;;;;0.50;0.50;;;17.70;43.60;;;;;;4869142;29;20044;-49
2022/01/23 14:14:19;;;;;;;0.90;0.22;;;17.70;43.60;;;;;;4869011;29;20462;-48
2022/01/23 14:16:47;;;;;;;0.73;0.73;;;17.70;43.60;;;;;;4869926;29;20095;-49
2022/01/23 14:19:21;;;;;;;0.50;0.20;;;17.80;43.60;;;;;;4868037;29;20552;-48
2022/01/23 14:21:50;;;;;;;0.30;0.30;;;17.80;43.70;;;;;;4885632;29;20060;-51
2022/01/23 14:24:25;;;;;;;0.75;0.75;;;17.80;43.50;;;;;;4894551;29;20052;-50
2022/01/23 14:26:59;;;;;;;1.08;0.43;;;17.80;43.50;;;;;;4893917;29;20048;-51
2022/01/23 14:29:26;;;;;;;0.57;0.32;;;17.80;43.60;;;;;;4944690;28;20662;-50
2022/01/23 14:32:20;;;;;;;0.80;0.68;;;17.80;43.60;;;;;;4947316;28;20043;-53
2022/01/23 14:34:47;;;;;;;0.73;0.60;;;17.80;43.50;;;;;;4944946;28;20047;-52
2022/01/23 14:37:24;;;;;;;0.60;0.60;;;17.80;43.60;;;;;;4949476;29;20486;-48
2022/01/23 14:39:51;;;;;;;0.63;0.35;;;17.70;43.50;;;;;;4948437;28;20043;-53
2022/01/23 14:42:20;;;;;;;0.63;0.50;;;17.80;43.60;;;;;;4948405;28;20513;-50
2022/01/23 14:44:47;;;;;;;0.65;0.50;;;17.80;43.50;;;;;;4947344;28;20035;-49
2022/01/23 14:47:14;;;;;;;0.82;0.82;;;17.80;43.50;;;;;;4947690;28;20137;-47
2022/01/23 14:49:46;;;;;;;1.25;0.32;;;17.80;43.50;;;;;;4947034;28;20046;-51
2022/01/23 14:52:14;;;;;;;0.60;0.40;;;17.80;43.50;;;;;;4945203;28;20431;-51
2022/01/23 14:54:42;;;;;;;1.42;0.47;;;17.80;43.50;;;;;;4947623;28;20526;-54
2022/01/23 14:57:12;;;;;;;0.88;0.65;;;17.80;43.50;;;;;;4942929;28;20062;-51
2022/01/23 14:59:41;;;;;;;0.63;0.57;;;17.80;43.40;;;;;;4946448;28;20530;-52
2022/01/23 15:02:10;;;;;;;0.57;0.50;;;17.80;43.40;;;;;;4946391;28;20047;-47
2022/01/23 15:04:42;;;;;;;1.95;0.82;;;17.80;43.40;;;;;;4947221;28;20054;-54
2022/01/23 15:07:14;;;;;;;0.90;0.77;;;17.80;43.40;;;;;;4948198;29;20134;-53
2022/01/23 15:09:42;;;;;;;1.45;0.85;;;17.80;43.30;;;;;;4947441;28;20043;-47
2022/01/23 15:12:10;;;;;;;0.57;0.57;;;17.80;43.40;;;;;;4946301;28;20043;-51
2022/01/23 15:14:37;;;;;;;1.10;0.40;;;17.80;43.30;;;;;;4946040;28;20047;-50
2022/01/23 15:17:06;;;;;;;1.05;0.40;;;17.80;43.30;;;;;;4947197;28;20035;-52
2022/01/23 15:19:34;;;;;;;1.27;0.52;;;17.80;43.30;;;;;;4946922;28;20171;-49
2022/01/23 15:22:02;;;;;;;2.65;1.33;;;17.80;43.30;;;;;;4948364;29;20043;-51
2022/01/23 15:24:29;;;;;;;0.63;0.50;;;17.80;43.20;;;;;;4946887;28;20051;-51
2022/01/23 15:26:57;;;;;;;2.72;1.10;;;17.80;43.20;;;;;;4945979;28;20158;-51
2022/01/23 15:29:24;;;;;;;0.65;0.65;;;17.80;43.20;;;;;;4943984;28;20059;-53
2022/01/23 15:31:51;;;;;;;0.73;0.65;;;17.80;43.20;;;;;;4944809;28;20176;-49
2022/01/23 15:34:20;;;;;;;1.30;0.60;;;17.80;43.20;;;;;;4947512;28;20041;-55
2022/01/23 15:36:48;;;;;;;1.80;1.13;;;17.80;43.20;;;;;;4946571;28;20039;-49
2022/01/23 15:39:16;;;;;;;0.85;0.85;;;17.80;43.80;;;;;;4946331;28;20047;-50
2022/01/23 15:41:44;;;;;;;0.70;0.45;;;17.80;43.10;;;;;;4945082;28;20122;-53
2022/01/23 15:44:11;;;;;;;2.72;0.80;;;17.80;43.10;;;;;;4944125;28;20136;-48
2022/01/23 15:46:38;;;;;;;1.17;1.05;;;17.80;43.10;;;;;;4946532;28;20035;-52
2022/01/23 15:49:07;;;;;;;0.50;0.30;;;17.80;43.10;;;;;;4948309;28;20497;-48
2022/01/23 15:51:36;;;;;;;1.80;1.13;;;17.80;43.10;;;;;;4945691;28;20128;-51
2022/01/23 15:54:04;;;;;;;1.55;0.50;;;17.80;43.10;;;;;;4946269;28;20041;-51
2022/01/23 15:56:31;;;;;;;1.08;0.82;;;17.80;43.10;;;;;;4941829;28;20517;-52
2022/01/23 15:58:58;;;;;;;0.77;0.70;;;17.80;43.00;;;;;;4945554;28;20039;-54
2022/01/23 16:01:25;;;;;;;0.82;0.50;;;17.80;43.10;;;;;;4947095;28;20587;-54
2022/01/23 16:03:52;;;;;;;1.13;0.55;;;17.80;43.00;;;;;;4948079;28;20074;-55
2022/01/23 16:06:19;;;;;;;0.95;0.45;;;17.80;43.00;;;;;;4946523;28;20038;-47
2022/01/23 16:08:48;;;;;;;2.58;0.60;;;17.80;43.00;;;;;;4946350;28;20039;-50
2022/01/23 16:11:15;;;;;;;1.33;0.77;;;17.80;43.20;;;;;;4944999;28;20055;-48